sensor_id;sensor_type;location;lat;lon;timestamp;temperature;humidity
11107;DHT22;5607;48.302;14.294;2023-12-29T00:02:19;6.60;1.00
11107;DHT22;5607;48.302;14.294;2023-12-29T00:05:06;6.50;1.00
11107;DHT22;5607;48.302;14.294;2023-12-29T00:07:53;6.50;1.00
11107;DHT22;5607;48.302;14.294;2023-12-29T00:10:40;6.50;1.00
11107;DHT22;5607;48.302;14.294;2023-12-29T00:13:26;6.50;1.00
11107;DHT22;5607;48.302;14.294;2023-12-29T00:16:14;6.60;1.00
11107;DHT22;5607;48.302;14.294;2023-12-29T00:19:01;6.70;1.00
11107;DHT22;5607;48.302;14.294;2023-12-29T00:21:48;6.70;1.00
11107;DHT22;5607;48.302;14.294;2023-12-29T00:24:34;6.70;1.00
11107;DHT22;5607;48.302;14.294;2023-12-29T00:27:21;6.70;1.00
11107;DHT22;5607;48.302;14.294;2023-12-29T00:30:08;6.70;1.00
11107;DHT22;5607;48.302;14.294;2023-12-29T00:32:55;6.70;1.00
11107;DHT22;5607;48.302;14.294;2023-12-29T00:35:42;6.70;1.00
11107;DHT22;5607;48.302;14.294;2023-12-29T00:38:29;6.70;1.00
11107;DHT22;5607;48.302;14.294;2023-12-29T00:41:15;6.70;1.00
11107;DHT22;5607;48.302;14.294;2023-12-29T00:44:02;6.60;1.00
11107;DHT22;5607;48.302;14.294;2023-12-29T00:46:49;6.60;1.00
11107;DHT22;5607;48.302;14.294;2023-12-29T00:49:38;6.60;1.00
11107;DHT22;5607;48.302;14.294;2023-12-29T00:52:25;6.50;1.00
11107;DHT22;5607;48.302;14.294;2023-12-29T00:55:12;6.30;1.00
11107;DHT22;5607;48.302;14.294;2023-12-29T00:57:59;6.20;1.00
11107;DHT22;5607;48.302;14.294;2023-12-29T01:00:46;6.30;1.00
11107;DHT22;5607;48.302;14.294;2023-12-29T01:03:32;6.20;1.00
11107;DHT22;5607;48.302;14.294;2023-12-29T01:06:19;6.30;1.00
11107;DHT22;5607;48.302;14.294;2023-12-29T01:09:06;6.30;1.00
11107;DHT22;5607;48.302;14.294;2023-12-29T01:11:55;6.40;1.00
11107;DHT22;5607;48.302;14.294;2023-12-29T01:14:41;6.40;1.00
11107;DHT22;5607;48.302;14.294;2023-12-29T01:17:28;6.40;1.00
11107;DHT22;5607;48.302;14.294;2023-12-29T01:20:15;6.50;1.00
11107;DHT22;5607;48.302;14.294;2023-12-29T01:23:01;6.40;1.00
11107;DHT22;5607;48.302;14.294;2023-12-29T01:25:48;6.50;1.00
11107;DHT22;5607;48.302;14.294;2023-12-29T01:28:34;6.50;1.00
11107;DHT22;5607;48.302;14.294;2023-12-29T01:31:21;6.50;1.00
11107;DHT22;5607;48.302;14.294;2023-12-29T01:34:08;6.50;1.00
11107;DHT22;5607;48.302;14.294;2023-12-29T01:36:54;6.50;1.00
11107;DHT22;5607;48.302;14.294;2023-12-29T01:39:41;6.50;1.00
11107;DHT22;5607;48.302;14.294;2023-12-29T01:42:27;6.60;1.00
11107;DHT22;5607;48.302;14.294;2023-12-29T01:45:20;6.60;1.00
11107;DHT22;5607;48.302;14.294;2023-12-29T01:48:08;6.70;1.00
11107;DHT22;5607;48.302;14.294;2023-12-29T01:50:55;6.80;1.00
11107;DHT22;5607;48.302;14.294;2023-12-29T01:53:43;6.80;1.00
11107;DHT22;5607;48.302;14.294;2023-12-29T01:56:30;6.80;1.00
11107;DHT22;5607;48.302;14.294;2023-12-29T01:59:17;6.80;1.00
11107;DHT22;5607;48.302;14.294;2023-12-29T02:02:05;6.70;1.00
11107;DHT22;5607;48.302;14.294;2023-12-29T02:04:52;6.60;1.00
11107;DHT22;5607;48.302;14.294;2023-12-29T02:07:40;6.60;1.00
11107;DHT22;5607;48.302;14.294;2023-12-29T02:10:27;6.50;1.00
11107;DHT22;5607;48.302;14.294;2023-12-29T02:13:14;6.50;1.00
11107;DHT22;5607;48.302;14.294;2023-12-29T02:16:02;6.40;1.00
11107;DHT22;5607;48.302;14.294;2023-12-29T02:19:34;6.40;1.00
11107;DHT22;5607;48.302;14.294;2023-12-29T02:22:32;6.40;1.00
11107;DHT22;5607;48.302;14.294;2023-12-29T02:25:19;6.40;1.00
11107;DHT22;5607;48.302;14.294;2023-12-29T02:28:15;6.50;1.00
11107;DHT22;5607;48.302;14.294;2023-12-29T02:31:14;6.60;1.00
11107;DHT22;5607;48.302;14.294;2023-12-29T02:34:04;6.60;1.00
11107;DHT22;5607;48.302;14.294;2023-12-29T02:36:53;6.60;1.00
11107;DHT22;5607;48.302;14.294;2023-12-29T02:39:42;6.60;1.00
11107;DHT22;5607;48.302;14.294;2023-12-29T02:42:28;6.70;1.00
11107;DHT22;5607;48.302;14.294;2023-12-29T02:45:15;6.70;1.00
11107;DHT22;5607;48.302;14.294;2023-12-29T02:48:03;6.80;1.00
11107;DHT22;5607;48.302;14.294;2023-12-29T02:50:49;6.80;1.00
11107;DHT22;5607;48.302;14.294;2023-12-29T02:53:36;6.80;1.00
11107;DHT22;5607;48.302;14.294;2023-12-29T02:56:22;6.80;1.00
11107;DHT22;5607;48.302;14.294;2023-12-29T02:59:09;6.70;1.00
11107;DHT22;5607;48.302;14.294;2023-12-29T03:01:55;6.60;1.00
11107;DHT22;5607;48.302;14.294;2023-12-29T03:04:42;6.50;1.00
11107;DHT22;5607;48.302;14.294;2023-12-29T03:07:29;6.40;1.00
11107;DHT22;5607;48.302;14.294;2023-12-29T03:10:15;6.30;1.00
11107;DHT22;5607;48.302;14.294;2023-12-29T03:13:02;6.30;1.00
11107;DHT22;5607;48.302;14.294;2023-12-29T03:15:50;6.40;1.00
11107;DHT22;5607;48.302;14.294;2023-12-29T03:18:36;6.40;1.00
11107;DHT22;5607;48.302;14.294;2023-12-29T03:21:25;6.40;1.00
11107;DHT22;5607;48.302;14.294;2023-12-29T03:24:12;6.40;1.00
11107;DHT22;5607;48.302;14.294;2023-12-29T03:26:59;6.30;1.00
11107;DHT22;5607;48.302;14.294;2023-12-29T03:29:45;6.20;1.00
11107;DHT22;5607;48.302;14.294;2023-12-29T03:32:32;6.20;1.00
11107;DHT22;5607;48.302;14.294;2023-12-29T03:35:18;6.20;1.00
11107;DHT22;5607;48.302;14.294;2023-12-29T03:38:05;6.10;1.00
11107;DHT22;5607;48.302;14.294;2023-12-29T03:40:51;6.10;1.00
11107;DHT22;5607;48.302;14.294;2023-12-29T03:43:38;6.10;1.00
11107;DHT22;5607;48.302;14.294;2023-12-29T03:46:24;6.10;1.00
11107;DHT22;5607;48.302;14.294;2023-12-29T03:49:12;6.10;1.00
11107;DHT22;5607;48.302;14.294;2023-12-29T03:51:58;6.10;1.00
11107;DHT22;5607;48.302;14.294;2023-12-29T03:54:45;6.20;1.00
11107;DHT22;5607;48.302;14.294;2023-12-29T03:57:31;6.10;1.00
11107;DHT22;5607;48.302;14.294;2023-12-29T04:00:18;6.20;1.00
11107;DHT22;5607;48.302;14.294;2023-12-29T04:03:04;6.20;1.00
11107;DHT22;5607;48.302;14.294;2023-12-29T04:05:51;6.20;1.00
11107;DHT22;5607;48.302;14.294;2023-12-29T04:08:37;6.30;1.00
11107;DHT22;5607;48.302;14.294;2023-12-29T04:11:24;6.40;1.00
11107;DHT22;5607;48.302;14.294;2023-12-29T04:14:10;6.40;1.00
11107;DHT22;5607;48.302;14.294;2023-12-29T04:16:59;6.60;1.00
11107;DHT22;5607;48.302;14.294;2023-12-29T04:19:49;6.60;1.00
11107;DHT22;5607;48.302;14.294;2023-12-29T04:22:35;6.60;1.00
11107;DHT22;5607;48.302;14.294;2023-12-29T04:25:22;6.60;1.00
11107;DHT22;5607;48.302;14.294;2023-12-29T04:28:08;6.50;1.00
11107;DHT22;5607;48.302;14.294;2023-12-29T04:30:55;6.60;1.00
11107;DHT22;5607;48.302;14.294;2023-12-29T04:33:42;6.60;1.00
11107;DHT22;5607;48.302;14.294;2023-12-29T04:36:28;6.60;1.00
11107;DHT22;5607;48.302;14.294;2023-12-29T04:39:15;6.60;1.00
11107;DHT22;5607;48.302;14.294;2023-12-29T04:42:01;6.50;1.00
11107;DHT22;5607;48.302;14.294;2023-12-29T04:44:48;6.60;1.00
11107;DHT22;5607;48.302;14.294;2023-12-29T04:47:35;6.50;1.00
11107;DHT22;5607;48.302;14.294;2023-12-29T04:50:22;6.60;1.00
11107;DHT22;5607;48.302;14.294;2023-12-29T04:53:08;6.60;1.00
11107;DHT22;5607;48.302;14.294;2023-12-29T04:55:55;6.60;1.00
11107;DHT22;5607;48.302;14.294;2023-12-29T04:58:41;6.60;1.00
11107;DHT22;5607;48.302;14.294;2023-12-29T05:01:28;6.60;1.00
11107;DHT22;5607;48.302;14.294;2023-12-29T05:04:14;6.70;1.00
11107;DHT22;5607;48.302;14.294;2023-12-29T05:07:03;6.60;1.00
11107;DHT22;5607;48.302;14.294;2023-12-29T05:09:51;6.50;1.00
11107;DHT22;5607;48.302;14.294;2023-12-29T05:12:37;6.50;1.00
11107;DHT22;5607;48.302;14.294;2023-12-29T05:15:24;6.50;1.00
11107;DHT22;5607;48.302;14.294;2023-12-29T05:18:10;6.60;1.00
11107;DHT22;5607;48.302;14.294;2023-12-29T05:20:57;6.60;1.00
11107;DHT22;5607;48.302;14.294;2023-12-29T05:23:44;6.50;1.00
11107;DHT22;5607;48.302;14.294;2023-12-29T05:26:35;6.50;1.00
11107;DHT22;5607;48.302;14.294;2023-12-29T05:29:22;6.60;1.00
11107;DHT22;5607;48.302;14.294;2023-12-29T05:32:08;6.60;1.00
11107;DHT22;5607;48.302;14.294;2023-12-29T05:34:55;6.60;1.00
11107;DHT22;5607;48.302;14.294;2023-12-29T05:37:42;6.60;1.00
11107;DHT22;5607;48.302;14.294;2023-12-29T05:40:28;6.60;1.00
11107;DHT22;5607;48.302;14.294;2023-12-29T05:43:15;6.60;1.00
11107;DHT22;5607;48.302;14.294;2023-12-29T05:46:02;6.60;1.00
11107;DHT22;5607;48.302;14.294;2023-12-29T05:48:49;6.60;1.00
11107;DHT22;5607;48.302;14.294;2023-12-29T05:51:38;6.70;1.00
11107;DHT22;5607;48.302;14.294;2023-12-29T05:54:24;6.70;1.00
11107;DHT22;5607;48.302;14.294;2023-12-29T05:57:11;6.70;1.00
11107;DHT22;5607;48.302;14.294;2023-12-29T05:59:58;6.70;1.00
11107;DHT22;5607;48.302;14.294;2023-12-29T06:02:45;6.60;1.00
11107;DHT22;5607;48.302;14.294;2023-12-29T06:05:32;6.60;1.00
11107;DHT22;5607;48.302;14.294;2023-12-29T06:08:19;6.70;1.00
11107;DHT22;5607;48.302;14.294;2023-12-29T06:11:05;6.60;1.00
11107;DHT22;5607;48.302;14.294;2023-12-29T06:13:52;6.70;1.00
11107;DHT22;5607;48.302;14.294;2023-12-29T06:16:39;6.60;1.00
11107;DHT22;5607;48.302;14.294;2023-12-29T06:19:25;6.70;1.00
11107;DHT22;5607;48.302;14.294;2023-12-29T06:22:14;6.70;1.00
11107;DHT22;5607;48.302;14.294;2023-12-29T06:25:01;6.70;1.00
11107;DHT22;5607;48.302;14.294;2023-12-29T06:27:49;6.80;1.00
11107;DHT22;5607;48.302;14.294;2023-12-29T06:30:35;6.80;1.00
11107;DHT22;5607;48.302;14.294;2023-12-29T06:33:22;6.80;1.00
11107;DHT22;5607;48.302;14.294;2023-12-29T06:36:09;6.80;1.00
11107;DHT22;5607;48.302;14.294;2023-12-29T06:38:56;6.80;1.00
11107;DHT22;5607;48.302;14.294;2023-12-29T06:41:43;6.80;1.00
11107;DHT22;5607;48.302;14.294;2023-12-29T06:44:29;6.70;1.00
11107;DHT22;5607;48.302;14.294;2023-12-29T06:47:16;6.80;1.00
11107;DHT22;5607;48.302;14.294;2023-12-29T06:50:03;6.80;1.00
11107;DHT22;5607;48.302;14.294;2023-12-29T06:52:50;6.80;1.00
11107;DHT22;5607;48.302;14.294;2023-12-29T06:55:37;6.90;1.00
11107;DHT22;5607;48.302;14.294;2023-12-29T06:58:23;6.90;1.00
11107;DHT22;5607;48.302;14.294;2023-12-29T07:01:10;7.00;1.00
11107;DHT22;5607;48.302;14.294;2023-12-29T07:03:56;7.00;1.00
11107;DHT22;5607;48.302;14.294;2023-12-29T07:06:43;7.00;1.00
11107;DHT22;5607;48.302;14.294;2023-12-29T07:09:30;7.00;1.00
11107;DHT22;5607;48.302;14.294;2023-12-29T07:12:16;7.00;1.00
11107;DHT22;5607;48.302;14.294;2023-12-29T07:15:04;6.90;1.00
11107;DHT22;5607;48.302;14.294;2023-12-29T07:17:51;6.80;1.00
11107;DHT22;5607;48.302;14.294;2023-12-29T07:20:37;6.70;1.00
11107;DHT22;5607;48.302;14.294;2023-12-29T07:23:24;6.80;1.00
11107;DHT22;5607;48.302;14.294;2023-12-29T07:26:10;6.90;1.00
11107;DHT22;5607;48.302;14.294;2023-12-29T07:28:57;6.90;1.00
11107;DHT22;5607;48.302;14.294;2023-12-29T07:31:44;6.80;1.00
11107;DHT22;5607;48.302;14.294;2023-12-29T07:34:30;6.80;1.00
11107;DHT22;5607;48.302;14.294;2023-12-29T07:37:17;6.80;1.00
11107;DHT22;5607;48.302;14.294;2023-12-29T07:40:04;6.80;1.00
11107;DHT22;5607;48.302;14.294;2023-12-29T07:42:52;6.80;1.00
11107;DHT22;5607;48.302;14.294;2023-12-29T07:45:39;6.80;1.00
11107;DHT22;5607;48.302;14.294;2023-12-29T07:48:25;6.80;1.00
11107;DHT22;5607;48.302;14.294;2023-12-29T07:51:12;6.80;1.00
11107;DHT22;5607;48.302;14.294;2023-12-29T07:53:59;6.90;1.00
11107;DHT22;5607;48.302;14.294;2023-12-29T07:56:46;7.10;1.00
11107;DHT22;5607;48.302;14.294;2023-12-29T07:59:32;7.20;1.00
11107;DHT22;5607;48.302;14.294;2023-12-29T08:02:19;7.20;1.00
11107;DHT22;5607;48.302;14.294;2023-12-29T08:05:06;7.20;1.00
11107;DHT22;5607;48.302;14.294;2023-12-29T08:07:54;7.40;1.00
11107;DHT22;5607;48.302;14.294;2023-12-29T08:10:41;7.50;1.00
11107;DHT22;5607;48.302;14.294;2023-12-29T08:13:27;7.50;1.00
11107;DHT22;5607;48.302;14.294;2023-12-29T08:16:16;7.60;1.00
11107;DHT22;5607;48.302;14.294;2023-12-29T08:19:05;7.70;1.00
11107;DHT22;5607;48.302;14.294;2023-12-29T08:21:52;7.80;1.00
11107;DHT22;5607;48.302;14.294;2023-12-29T08:24:42;7.80;1.00
11107;DHT22;5607;48.302;14.294;2023-12-29T08:27:31;7.90;1.00
11107;DHT22;5607;48.302;14.294;2023-12-29T08:30:18;8.00;99.90
11107;DHT22;5607;48.302;14.294;2023-12-29T08:33:05;8.00;99.90
11107;DHT22;5607;48.302;14.294;2023-12-29T08:35:51;8.10;99.90
11107;DHT22;5607;48.302;14.294;2023-12-29T08:38:38;8.10;99.90
11107;DHT22;5607;48.302;14.294;2023-12-29T08:41:24;8.10;99.90
11107;DHT22;5607;48.302;14.294;2023-12-29T08:44:11;8.20;99.90
11107;DHT22;5607;48.302;14.294;2023-12-29T08:46:57;8.20;99.90
11107;DHT22;5607;48.302;14.294;2023-12-29T08:49:44;8.30;99.90
11107;DHT22;5607;48.302;14.294;2023-12-29T08:52:31;8.30;99.90
11107;DHT22;5607;48.302;14.294;2023-12-29T08:55:19;8.30;99.90
11107;DHT22;5607;48.302;14.294;2023-12-29T08:58:06;8.20;1.40
11107;DHT22;5607;48.302;14.294;2023-12-29T09:00:52;8.20;1.00
11107;DHT22;5607;48.302;14.294;2023-12-29T09:03:39;8.10;1.00
11107;DHT22;5607;48.302;14.294;2023-12-29T09:06:25;8.00;1.00
11107;DHT22;5607;48.302;14.294;2023-12-29T09:09:12;7.90;1.00
11107;DHT22;5607;48.302;14.294;2023-12-29T09:11:59;7.80;1.00
11107;DHT22;5607;48.302;14.294;2023-12-29T09:14:45;8.00;1.00
11107;DHT22;5607;48.302;14.294;2023-12-29T09:17:32;8.00;1.00
11107;DHT22;5607;48.302;14.294;2023-12-29T09:20:19;7.90;1.00
11107;DHT22;5607;48.302;14.294;2023-12-29T09:23:05;8.00;1.00
11107;DHT22;5607;48.302;14.294;2023-12-29T09:25:52;8.20;1.00
11107;DHT22;5607;48.302;14.294;2023-12-29T09:28:41;8.30;1.00
11107;DHT22;5607;48.302;14.294;2023-12-29T09:31:30;8.40;1.00
11107;DHT22;5607;48.302;14.294;2023-12-29T09:34:17;8.50;1.00
11107;DHT22;5607;48.302;14.294;2023-12-29T09:37:04;8.60;99.90
11107;DHT22;5607;48.302;14.294;2023-12-29T09:39:50;8.60;99.90
11107;DHT22;5607;48.302;14.294;2023-12-29T09:42:37;8.70;99.90
11107;DHT22;5607;48.302;14.294;2023-12-29T09:45:26;8.80;99.90
11107;DHT22;5607;48.302;14.294;2023-12-29T09:48:16;8.80;99.90
11107;DHT22;5607;48.302;14.294;2023-12-29T09:51:05;8.90;99.90
11107;DHT22;5607;48.302;14.294;2023-12-29T09:53:53;9.00;99.90
11107;DHT22;5607;48.302;14.294;2023-12-29T09:56:40;9.10;99.90
11107;DHT22;5607;48.302;14.294;2023-12-29T09:59:27;9.30;99.90
11107;DHT22;5607;48.302;14.294;2023-12-29T10:02:15;9.20;99.90
11107;DHT22;5607;48.302;14.294;2023-12-29T10:05:02;9.30;99.90
11107;DHT22;5607;48.302;14.294;2023-12-29T10:07:50;9.30;99.90
11107;DHT22;5607;48.302;14.294;2023-12-29T10:10:38;9.30;99.90
11107;DHT22;5607;48.302;14.294;2023-12-29T10:13:27;9.10;99.90
11107;DHT22;5607;48.302;14.294;2023-12-29T10:16:22;9.00;99.90
11107;DHT22;5607;48.302;14.294;2023-12-29T10:19:18;9.00;99.90
11107;DHT22;5607;48.302;14.294;2023-12-29T10:22:51;9.00;99.90
11107;DHT22;5607;48.302;14.294;2023-12-29T10:25:36;9.00;99.90
11107;DHT22;5607;48.302;14.294;2023-12-29T10:28:22;8.90;99.90
11107;DHT22;5607;48.302;14.294;2023-12-29T10:31:09;9.00;99.90
11107;DHT22;5607;48.302;14.294;2023-12-29T10:34:18;9.10;99.90
11107;DHT22;5607;48.302;14.294;2023-12-29T10:37:14;9.10;99.90
11107;DHT22;5607;48.302;14.294;2023-12-29T10:40:08;9.20;99.90
11107;DHT22;5607;48.302;14.294;2023-12-29T10:42:55;9.30;99.90
11107;DHT22;5607;48.302;14.294;2023-12-29T10:45:43;9.40;99.90
11107;DHT22;5607;48.302;14.294;2023-12-29T10:48:30;9.40;99.90
11107;DHT22;5607;48.302;14.294;2023-12-29T10:51:16;9.50;99.90
11107;DHT22;5607;48.302;14.294;2023-12-29T10:54:19;9.60;99.90
11107;DHT22;5607;48.302;14.294;2023-12-29T10:57:10;9.80;99.90
11107;DHT22;5607;48.302;14.294;2023-12-29T10:59:58;9.90;99.90
11107;DHT22;5607;48.302;14.294;2023-12-29T11:02:53;9.90;99.90
11107;DHT22;5607;48.302;14.294;2023-12-29T11:05:40;10.00;99.90
11107;DHT22;5607;48.302;14.294;2023-12-29T11:08:27;10.00;99.90
11107;DHT22;5607;48.302;14.294;2023-12-29T11:11:14;10.10;99.90
11107;DHT22;5607;48.302;14.294;2023-12-29T11:14:01;10.10;99.90
11107;DHT22;5607;48.302;14.294;2023-12-29T11:16:48;10.10;99.90
11107;DHT22;5607;48.302;14.294;2023-12-29T11:19:36;10.00;99.90
11107;DHT22;5607;48.302;14.294;2023-12-29T11:22:25;9.90;99.90
11107;DHT22;5607;48.302;14.294;2023-12-29T11:25:14;9.90;99.90
11107;DHT22;5607;48.302;14.294;2023-12-29T11:28:01;10.00;99.90
11107;DHT22;5607;48.302;14.294;2023-12-29T11:30:49;10.00;99.90
11107;DHT22;5607;48.302;14.294;2023-12-29T11:33:38;10.10;99.90
11107;DHT22;5607;48.302;14.294;2023-12-29T11:36:29;10.10;99.90
11107;DHT22;5607;48.302;14.294;2023-12-29T11:39:21;10.20;99.90
11107;DHT22;5607;48.302;14.294;2023-12-29T11:51:44;10.20;99.90
11107;DHT22;5607;48.302;14.294;2023-12-29T11:54:36;10.20;99.90
11107;DHT22;5607;48.302;14.294;2023-12-29T11:57:31;10.30;99.90
11107;DHT22;5607;48.302;14.294;2023-12-29T12:00:18;10.00;99.90
11107;DHT22;5607;48.302;14.294;2023-12-29T12:03:13;9.90;99.90
11107;DHT22;5607;48.302;14.294;2023-12-29T12:06:04;9.80;99.90
11107;DHT22;5607;48.302;14.294;2023-12-29T12:08:51;9.90;99.90
11107;DHT22;5607;48.302;14.294;2023-12-29T12:12:12;10.10;99.90
11107;DHT22;5607;48.302;14.294;2023-12-29T12:14:58;10.40;99.90
11107;DHT22;5607;48.302;14.294;2023-12-29T12:17:45;10.60;99.90
11107;DHT22;5607;48.302;14.294;2023-12-29T12:20:36;10.60;99.90
11107;DHT22;5607;48.302;14.294;2023-12-29T12:23:24;10.60;99.90
11107;DHT22;5607;48.302;14.294;2023-12-29T12:26:12;10.60;99.90
11107;DHT22;5607;48.302;14.294;2023-12-29T12:28:59;10.70;99.90
11107;DHT22;5607;48.302;14.294;2023-12-29T12:31:55;10.70;99.90
11107;DHT22;5607;48.302;14.294;2023-12-29T12:34:42;10.70;99.90
11107;DHT22;5607;48.302;14.294;2023-12-29T12:37:29;10.70;99.90
11107;DHT22;5607;48.302;14.294;2023-12-29T12:40:28;10.70;99.90
11107;DHT22;5607;48.302;14.294;2023-12-29T12:43:15;10.70;99.90
11107;DHT22;5607;48.302;14.294;2023-12-29T12:46:03;10.70;99.90
11107;DHT22;5607;48.302;14.294;2023-12-29T12:48:55;10.70;99.90
11107;DHT22;5607;48.302;14.294;2023-12-29T12:51:42;10.80;99.90
11107;DHT22;5607;48.302;14.294;2023-12-29T12:54:29;10.90;99.90
11107;DHT22;5607;48.302;14.294;2023-12-29T12:57:19;10.90;99.90
11107;DHT22;5607;48.302;14.294;2023-12-29T13:00:06;10.90;99.90
11107;DHT22;5607;48.302;14.294;2023-12-29T13:02:55;10.90;99.90
11107;DHT22;5607;48.302;14.294;2023-12-29T13:05:42;11.00;99.90
11107;DHT22;5607;48.302;14.294;2023-12-29T13:08:29;10.90;99.90
11107;DHT22;5607;48.302;14.294;2023-12-29T13:11:19;10.90;99.90
11107;DHT22;5607;48.302;14.294;2023-12-29T13:14:08;10.90;99.90
11107;DHT22;5607;48.302;14.294;2023-12-29T13:16:54;10.90;99.90
11107;DHT22;5607;48.302;14.294;2023-12-29T13:19:41;10.80;99.90
11107;DHT22;5607;48.302;14.294;2023-12-29T13:22:29;10.80;99.90
11107;DHT22;5607;48.302;14.294;2023-12-29T13:25:20;10.80;99.90
11107;DHT22;5607;48.302;14.294;2023-12-29T13:28:10;10.80;99.90
11107;DHT22;5607;48.302;14.294;2023-12-29T13:30:57;10.90;99.90
11107;DHT22;5607;48.302;14.294;2023-12-29T13:33:50;10.90;99.90
11107;DHT22;5607;48.302;14.294;2023-12-29T13:36:50;11.00;99.90
11107;DHT22;5607;48.302;14.294;2023-12-29T13:39:42;11.10;99.90
11107;DHT22;5607;48.302;14.294;2023-12-29T13:42:37;11.20;99.90
11107;DHT22;5607;48.302;14.294;2023-12-29T13:45:29;11.20;99.90
11107;DHT22;5607;48.302;14.294;2023-12-29T13:48:17;11.20;99.90
11107;DHT22;5607;48.302;14.294;2023-12-29T13:51:03;11.20;99.90
11107;DHT22;5607;48.302;14.294;2023-12-29T13:53:57;11.20;99.90
11107;DHT22;5607;48.302;14.294;2023-12-29T13:56:53;11.20;99.90
11107;DHT22;5607;48.302;14.294;2023-12-29T13:59:41;11.10;99.90
11107;DHT22;5607;48.302;14.294;2023-12-29T14:02:28;11.10;99.90
11107;DHT22;5607;48.302;14.294;2023-12-29T14:05:27;11.10;99.90
11107;DHT22;5607;48.302;14.294;2023-12-29T14:08:19;11.00;99.90
11107;DHT22;5607;48.302;14.294;2023-12-29T14:11:11;10.90;99.90
11107;DHT22;5607;48.302;14.294;2023-12-29T14:13:58;10.90;99.90
11107;DHT22;5607;48.302;14.294;2023-12-29T14:16:45;11.00;99.90
11107;DHT22;5607;48.302;14.294;2023-12-29T14:19:35;10.90;99.90
11107;DHT22;5607;48.302;14.294;2023-12-29T14:22:22;10.90;99.90
11107;DHT22;5607;48.302;14.294;2023-12-29T14:25:09;10.90;99.90
11107;DHT22;5607;48.302;14.294;2023-12-29T14:27:58;10.90;99.90
11107;DHT22;5607;48.302;14.294;2023-12-29T14:30:45;10.80;99.90
11107;DHT22;5607;48.302;14.294;2023-12-29T14:33:31;10.80;99.90
11107;DHT22;5607;48.302;14.294;2023-12-29T14:36:18;10.80;99.90
11107;DHT22;5607;48.302;14.294;2023-12-29T14:39:04;10.80;99.90
11107;DHT22;5607;48.302;14.294;2023-12-29T14:41:52;10.80;99.90
11107;DHT22;5607;48.302;14.294;2023-12-29T14:44:39;10.70;99.90
11107;DHT22;5607;48.302;14.294;2023-12-29T14:47:25;10.60;99.90
11107;DHT22;5607;48.302;14.294;2023-12-29T14:50:12;10.50;99.90
11107;DHT22;5607;48.302;14.294;2023-12-29T14:52:59;10.50;99.90
11107;DHT22;5607;48.302;14.294;2023-12-29T14:55:45;10.50;99.90
11107;DHT22;5607;48.302;14.294;2023-12-29T14:58:32;10.40;99.90
11107;DHT22;5607;48.302;14.294;2023-12-29T15:01:19;10.40;99.90
11107;DHT22;5607;48.302;14.294;2023-12-29T15:04:05;10.40;99.90
11107;DHT22;5607;48.302;14.294;2023-12-29T15:06:52;10.30;99.90
11107;DHT22;5607;48.302;14.294;2023-12-29T15:09:38;10.30;99.90
11107;DHT22;5607;48.302;14.294;2023-12-29T15:12:25;10.30;99.90
11107;DHT22;5607;48.302;14.294;2023-12-29T15:15:12;10.20;99.90
11107;DHT22;5607;48.302;14.294;2023-12-29T15:17:58;10.20;99.90
11107;DHT22;5607;48.302;14.294;2023-12-29T15:20:46;10.10;99.90
11107;DHT22;5607;48.302;14.294;2023-12-29T15:23:32;10.10;99.90
11107;DHT22;5607;48.302;14.294;2023-12-29T15:26:19;10.10;99.90
11107;DHT22;5607;48.302;14.294;2023-12-29T15:29:05;10.10;99.90
11107;DHT22;5607;48.302;14.294;2023-12-29T15:31:53;10.10;99.90
11107;DHT22;5607;48.302;14.294;2023-12-29T15:34:42;10.10;99.90
11107;DHT22;5607;48.302;14.294;2023-12-29T15:37:28;10.10;99.90
11107;DHT22;5607;48.302;14.294;2023-12-29T15:40:15;10.00;99.90
11107;DHT22;5607;48.302;14.294;2023-12-29T15:43:02;10.00;99.90
11107;DHT22;5607;48.302;14.294;2023-12-29T15:45:49;10.00;99.90
11107;DHT22;5607;48.302;14.294;2023-12-29T15:48:36;9.90;99.90
11107;DHT22;5607;48.302;14.294;2023-12-29T15:51:22;9.90;99.90
11107;DHT22;5607;48.302;14.294;2023-12-29T15:54:09;9.80;99.90
11107;DHT22;5607;48.302;14.294;2023-12-29T15:56:56;9.80;99.90
11107;DHT22;5607;48.302;14.294;2023-12-29T15:59:43;9.70;99.90
11107;DHT22;5607;48.302;14.294;2023-12-29T16:02:31;9.80;99.90
11107;DHT22;5607;48.302;14.294;2023-12-29T16:05:17;9.80;99.90
11107;DHT22;5607;48.302;14.294;2023-12-29T16:08:04;9.80;99.90
11107;DHT22;5607;48.302;14.294;2023-12-29T16:10:51;9.80;99.90
11107;DHT22;5607;48.302;14.294;2023-12-29T16:13:37;9.80;99.90
11107;DHT22;5607;48.302;14.294;2023-12-29T16:16:24;9.80;99.90
11107;DHT22;5607;48.302;14.294;2023-12-29T16:19:16;9.80;99.90
11107;DHT22;5607;48.302;14.294;2023-12-29T16:22:02;9.70;99.90
11107;DHT22;5607;48.302;14.294;2023-12-29T16:24:50;9.80;99.90
11107;DHT22;5607;48.302;14.294;2023-12-29T16:27:37;9.80;99.90
11107;DHT22;5607;48.302;14.294;2023-12-29T16:30:23;9.80;99.90
11107;DHT22;5607;48.302;14.294;2023-12-29T16:33:10;9.90;99.90
11107;DHT22;5607;48.302;14.294;2023-12-29T16:35:57;9.80;99.90
11107;DHT22;5607;48.302;14.294;2023-12-29T16:38:48;9.80;99.90
11107;DHT22;5607;48.302;14.294;2023-12-29T16:41:36;9.80;99.90
11107;DHT22;5607;48.302;14.294;2023-12-29T16:44:22;9.80;99.90
11107;DHT22;5607;48.302;14.294;2023-12-29T16:47:09;9.70;99.90
11107;DHT22;5607;48.302;14.294;2023-12-29T16:49:56;9.70;99.90
11107;DHT22;5607;48.302;14.294;2023-12-29T16:52:43;9.70;99.90
11107;DHT22;5607;48.302;14.294;2023-12-29T16:55:30;9.60;99.90
11107;DHT22;5607;48.302;14.294;2023-12-29T16:58:16;9.60;99.90
11107;DHT22;5607;48.302;14.294;2023-12-29T17:01:07;9.60;99.90
11107;DHT22;5607;48.302;14.294;2023-12-29T17:03:54;9.60;99.90
11107;DHT22;5607;48.302;14.294;2023-12-29T17:06:40;9.60;99.90
11107;DHT22;5607;48.302;14.294;2023-12-29T17:09:27;9.60;99.90
11107;DHT22;5607;48.302;14.294;2023-12-29T17:12:13;9.60;99.90
11107;DHT22;5607;48.302;14.294;2023-12-29T17:15:00;9.50;99.90
11107;DHT22;5607;48.302;14.294;2023-12-29T17:17:47;9.50;99.90
11107;DHT22;5607;48.302;14.294;2023-12-29T17:20:33;9.40;99.90
11107;DHT22;5607;48.302;14.294;2023-12-29T17:23:20;9.40;99.90
11107;DHT22;5607;48.302;14.294;2023-12-29T17:26:10;9.50;99.90
11107;DHT22;5607;48.302;14.294;2023-12-29T17:29:01;9.40;99.90
11107;DHT22;5607;48.302;14.294;2023-12-29T17:31:48;9.40;99.90
11107;DHT22;5607;48.302;14.294;2023-12-29T17:34:35;9.40;99.90
11107;DHT22;5607;48.302;14.294;2023-12-29T17:37:22;9.30;99.90
11107;DHT22;5607;48.302;14.294;2023-12-29T17:40:08;9.30;99.90
11107;DHT22;5607;48.302;14.294;2023-12-29T17:42:55;9.20;99.90
11107;DHT22;5607;48.302;14.294;2023-12-29T17:45:42;9.20;99.90
11107;DHT22;5607;48.302;14.294;2023-12-29T17:48:28;9.20;99.90
11107;DHT22;5607;48.302;14.294;2023-12-29T17:51:19;9.10;99.90
11107;DHT22;5607;48.302;14.294;2023-12-29T17:54:06;9.10;99.90
11107;DHT22;5607;48.302;14.294;2023-12-29T17:56:53;9.10;99.90
11107;DHT22;5607;48.302;14.294;2023-12-29T17:59:39;9.10;99.90
11107;DHT22;5607;48.302;14.294;2023-12-29T18:02:26;9.10;99.90
11107;DHT22;5607;48.302;14.294;2023-12-29T18:05:17;9.10;99.90
11107;DHT22;5607;48.302;14.294;2023-12-29T18:08:04;9.10;99.90
11107;DHT22;5607;48.302;14.294;2023-12-29T18:10:51;9.10;99.90
11107;DHT22;5607;48.302;14.294;2023-12-29T18:13:38;9.10;99.90